LEIBLEJR

Guest
Details From LEIB - Ibiza
To LEJR - Jerez
Flight Number -
Tags Generated
Created
Modified
Stats Distance 375 nm / 694 km
Max Altitude 0 ft / 0 m
Waypoints 3
Social Downloads 0
Likes 0
Share VATSIM

Download

Looking for another format? Having issues loading an existing format? Contact us
Advertisement - Login to hide

Notes

Generated

Route

LEIB JRZ12 LEJR

ID Type Via Altitude Latitude Longitude Leg Dist Tot Dist Heading (true) Name
O LEIB APT - 0 ft / 0 m 38.86694˚ 1.35887˚ - 0 nm - -
JRZ12 FIX - 0 ft / 0 m 36.86602˚ -5.78554˚ 359 nm 359 nm 253° / 248° -
O LEJR APT - 0 ft / 0 m 36.73497˚ -6.06481˚ 15 nm 374 nm 240° / 240° -

Altitude Profile

Advertisement - Login to hide

Weather


0- 5 10 15 20 25 30 35+ Temperature / ° C

Clouds and Precipitation
Forecast for 2018-05-25 12:00 UTC. Updated 4 hours ago

Ground ~20,000 ft ~40,000 ft Winds

LEIB

Details ICAO LEIB (IBZ)
Name Ibiza
Region Spain
Timezone Europe/Madrid (UTC+2.0)
Stats Elevation 20 ft / 6 m (AMSL)
Location 38.872871° 1.373045°
Runways 1
Magnetic Variation 0.711° E

METAR

LEIB 251500Z 21007KT 160V250 9999 FEW007 BKN010 22/18 Q1011 NOSIG

Decode

TAF

TAF AMD LEIB 251500Z 2515/2615 20011KT 9999 FEW040 TX25/2612Z TN15/2606Z TEMPO 2515/2520 FEW008 BKN010 BECMG 2520/2522 VRB03KT TEMPO 2522/2607 2000 BR TEMPO 2611/2615 12009KT

Decode

Departure Runways

ID Width Length Bearing (true) Bearing (mag) Surface Threshold Offset Overrun Length
06 148 ft / 45 m 9,153 ft / 2,790 m 61.85° 61.14° Asphalt 0 ft / 0 m 213 ft / 65 m
24 148 ft / 45 m 9,153 ft / 2,790 m 241.86° 241.15° Asphalt 0 ft / 0 m 197 ft / 60 m

LEJR

Details ICAO LEJR (XRY)
Name Jerez
Region Spain
Timezone Europe/Madrid (UTC+2.0)
Stats Elevation 93 ft / 28 m (AMSL)
Location 36.744622° -6.060110°
Runways 2
Magnetic Variation 1.287° W

METAR

LEJR 251500Z 22011KT 170V260 9999 SCT037 23/12 Q1013

Decode

TAF

TAF TAF LEJR 251100Z 2512/2612 22010KT 9999 SCT030 TX24/2514Z TN13/2606Z PROB40 TEMPO 2512/2514 SHRA SCT020TCU BECMG 2519/2522 15004KT

Decode

Destination Runways

ID Width Length Bearing (true) Bearing (mag) Surface Threshold Offset Overrun Length
02 148 ft / 45 m 7,559 ft / 2,304 m 21.34° 22.63° Asphalt 0 ft / 0 m 0 ft / 0 m
03 148 ft / 45 m 7,559 ft / 2,304 m 21.34° 22.63° Asphalt 0 ft / 0 m 0 ft / 0 m
20 148 ft / 45 m 7,559 ft / 2,304 m 201.34° 202.63° Asphalt 0 ft / 0 m 0 ft / 0 m
21 148 ft / 45 m 7,559 ft / 2,304 m 201.34° 202.63° Asphalt 0 ft / 0 m 0 ft / 0 m

Approach Navaids

Runway Type Ident Frequency Range Bearing (true) Bearing (mag) Slope Elevation
20 Localiser IJR 108.90 MHz 18 nm / 33 km 201.34° 202.63° - 68 ft / 21 m (AMSL)
20 Glidescope IJR 108.90 MHz 10 nm / 19 km 201.34° 202.63° 3.00° 93 ft / 28 m (AMSL)
20 DME IJR 108.90 MHz 18 nm / 33 km - - - 93 ft / 28 m (AMSL)

Popular Alternatives